createdAt,value
2017-01-26T00:00:18.095Z,1028.18
2017-01-26T00:01:27.047Z,1028.2
2017-01-26T00:02:35.994Z,1028.26
2017-01-26T00:03:45.033Z,1028.2
2017-01-26T00:04:53.994Z,1028.23
2017-01-26T00:06:03.042Z,1028.21
2017-01-26T00:07:11.996Z,1028.21
2017-01-26T00:08:20.944Z,1028.25
2017-01-26T00:09:29.901Z,1028.24
2017-01-26T00:10:38.854Z,1028.25
2017-01-26T00:11:47.894Z,1028.27
2017-01-26T00:12:56.853Z,1028.32
2017-01-26T00:14:05.807Z,1028.29
2017-01-26T00:15:14.767Z,1028.32
2017-01-26T00:16:23.723Z,1028.3
2017-01-26T00:17:32.674Z,1028.27
2017-01-26T00:18:41.626Z,1028.26
2017-01-26T00:19:50.580Z,1028.28
2017-01-26T00:20:59.536Z,1028.27
2017-01-26T00:22:08.499Z,1028.3
2017-01-26T00:23:17.549Z,1028.25
2017-01-26T00:24:26.541Z,1028.23
2017-01-26T00:25:35.501Z,1028.21
2017-01-26T00:26:44.543Z,1028.18
2017-01-26T00:27:53.498Z,1028.18
2017-01-26T00:29:02.456Z,1028.13
2017-01-26T00:30:11.451Z,1028.17
2017-01-26T00:31:20.444Z,1028.19
2017-01-26T00:32:29.397Z,1028.15
2017-01-26T00:33:38.437Z,1028.13
2017-01-26T00:34:47.475Z,1028.16
2017-01-26T00:35:56.430Z,1028.14
2017-01-26T00:37:05.392Z,1028.15
2017-01-26T00:38:14.344Z,1028.14
2017-01-26T00:39:23.318Z,1028.1
2017-01-26T00:40:32.276Z,1028.11
2017-01-26T00:41:41.234Z,1028.09
2017-01-26T00:42:50.188Z,1028.15
2017-01-26T00:43:59.157Z,1028.13
2017-01-26T00:45:08.110Z,1028.12
2017-01-26T00:46:17.068Z,1028.1
2017-01-26T00:47:26.022Z,1028.11
2017-01-26T00:48:35.065Z,1028.07
2017-01-26T00:49:44.025Z,1028.04
2017-01-26T00:50:52.979Z,1028.07
2017-01-26T00:52:01.931Z,1027.99
2017-01-26T00:53:10.890Z,1028.01
2017-01-26T00:54:19.847Z,1028.05
2017-01-26T00:55:28.833Z,1028.03
2017-01-26T00:56:37.793Z,1028.03
2017-01-26T00:57:46.747Z,1027.98
2017-01-26T00:58:55.699Z,1028.01
2017-01-26T01:00:04.782Z,1028.02
2017-01-26T01:01:13.734Z,1027.97
2017-01-26T01:02:22.718Z,1027.98
2017-01-26T01:03:31.675Z,1028.02
2017-01-26T01:04:40.628Z,1028
2017-01-26T01:05:49.580Z,1028.02
2017-01-26T01:06:58.537Z,1028.06
2017-01-26T01:08:07.493Z,1028.06
2017-01-26T01:09:16.451Z,1028.07
2017-01-26T01:10:25.431Z,1028.04
2017-01-26T01:11:34.387Z,1028.02
2017-01-26T01:12:43.345Z,1028.06
2017-01-26T01:13:52.305Z,1028.06
2017-01-26T01:15:01.259Z,1028.07
2017-01-26T01:16:10.215Z,1028.05
2017-01-26T01:17:19.169Z,1028.07
2017-01-26T01:18:28.117Z,1028.07
2017-01-26T01:19:37.074Z,1028.08
2017-01-26T01:20:46.029Z,1028.03
2017-01-26T01:21:54.983Z,1028.08
2017-01-26T01:23:03.937Z,1028.03
2017-01-26T01:24:12.896Z,1028
2017-01-26T01:25:21.847Z,1028
2017-01-26T01:26:30.800Z,1028.01
2017-01-26T01:27:39.757Z,1028
2017-01-26T01:28:48.713Z,1027.98
2017-01-26T01:29:57.762Z,1027.92
2017-01-26T01:31:06.717Z,1027.96
2017-01-26T01:32:15.699Z,1027.95
2017-01-26T01:33:24.653Z,1027.94
2017-01-26T01:34:33.608Z,1028
2017-01-26T01:35:42.564Z,1027.97
2017-01-26T01:36:51.544Z,1027.99
2017-01-26T01:38:00.495Z,1028.03
2017-01-26T01:39:09.458Z,1027.96
2017-01-26T01:40:18.530Z,1027.95
2017-01-26T01:41:27.495Z,1027.93
2017-01-26T01:42:36.448Z,1027.95
2017-01-26T01:43:45.405Z,1027.95
2017-01-26T01:44:54.362Z,1027.94
2017-01-26T01:46:03.357Z,1027.92
2017-01-26T01:47:12.326Z,1027.92
2017-01-26T01:48:21.420Z,1027.93
2017-01-26T01:49:30.878Z,1027.9
2017-01-26T01:50:39.837Z,1027.88
2017-01-26T01:51:49.687Z,1027.85
2017-01-26T01:52:58.997Z,1027.89
2017-01-26T01:54:08.903Z,1027.92
2017-01-26T01:55:18.236Z,1027.91
2017-01-26T01:56:28.112Z,1027.85
2017-01-26T01:57:37.767Z,1027.85
2017-01-26T01:58:47.059Z,1027.88
2017-01-26T01:59:58.562Z,1027.9
2017-01-26T02:01:09.350Z,1027.9
2017-01-26T02:02:19.803Z,1027.9
2017-01-26T02:03:30.515Z,1027.89
2017-01-26T02:04:40.237Z,1027.93
2017-01-26T02:05:52.048Z,1027.91
2017-01-26T02:07:05.960Z,1027.9
2017-01-26T02:08:15.680Z,1027.93
2017-01-26T02:09:26.472Z,1027.89
2017-01-26T02:10:38.526Z,1027.88
2017-01-26T02:11:55.766Z,1027.86
2017-01-26T02:13:04.873Z,1027.82
2017-01-26T02:14:16.022Z,1027.83
2017-01-26T02:15:26.887Z,1027.88
2017-01-26T02:16:36.116Z,1027.85
2017-01-26T02:17:46.087Z,1027.82
2017-01-26T02:18:55.035Z,1027.84
2017-01-26T02:20:03.991Z,1027.86
2017-01-26T02:21:13.353Z,1027.9
2017-01-26T02:22:22.306Z,1027.91
2017-01-26T02:23:31.263Z,1027.93
2017-01-26T02:24:40.214Z,1027.92
2017-01-26T02:25:49.167Z,1027.89
2017-01-26T02:26:58.121Z,1027.85
2017-01-26T02:28:07.084Z,1027.83
2017-01-26T02:29:16.045Z,1027.86
2017-01-26T02:30:25.000Z,1027.82
2017-01-26T02:31:33.959Z,1027.85
2017-01-26T02:32:42.927Z,1027.82
2017-01-26T02:33:51.911Z,1027.8
2017-01-26T02:35:00.861Z,1027.79
2017-01-26T02:36:09.817Z,1027.78
2017-01-26T02:37:18.862Z,1027.77
2017-01-26T02:38:27.817Z,1027.81
2017-01-26T02:39:36.768Z,1027.8
2017-01-26T02:40:45.726Z,1027.74
2017-01-26T02:41:54.683Z,1027.74
2017-01-26T02:43:03.639Z,1027.73
2017-01-26T02:44:12.641Z,1027.75
2017-01-26T02:45:21.598Z,1027.71
2017-01-26T02:46:30.572Z,1027.71
2017-01-26T02:47:39.567Z,1027.69
2017-01-26T02:48:48.520Z,1027.72
2017-01-26T02:49:57.478Z,1027.69
2017-01-26T02:51:06.519Z,1027.67
2017-01-26T02:52:15.479Z,1027.64
2017-01-26T02:53:24.440Z,1027.65
2017-01-26T02:54:33.399Z,1027.62
2017-01-26T02:55:42.351Z,1027.62
2017-01-26T02:56:51.302Z,1027.62
2017-01-26T02:58:00.252Z,1027.62
2017-01-26T02:59:09.205Z,1027.64
2017-01-26T03:00:18.158Z,1027.62
2017-01-26T03:01:27.112Z,1027.67
2017-01-26T03:02:36.072Z,1027.72
2017-01-26T03:03:45.027Z,1027.66
2017-01-26T03:04:53.999Z,1027.7
2017-01-26T03:06:03.362Z,1027.71
2017-01-26T03:07:12.315Z,1027.71
2017-01-26T03:08:21.271Z,1027.75
2017-01-26T03:09:30.221Z,1027.74
2017-01-26T03:10:39.175Z,1027.79
2017-01-26T03:11:48.136Z,1027.72
2017-01-26T03:12:57.090Z,1027.73
2017-01-26T03:14:06.053Z,1027.74
2017-01-26T03:15:15.008Z,1027.76
2017-01-26T03:16:23.962Z,1027.78
2017-01-26T03:17:32.916Z,1027.78
2017-01-26T03:18:41.872Z,1027.74
2017-01-26T03:19:50.830Z,1027.69
2017-01-26T03:20:59.787Z,1027.67
2017-01-26T03:22:08.743Z,1027.7
2017-01-26T03:23:17.697Z,1027.72
2017-01-26T03:24:26.657Z,1027.69
2017-01-26T03:25:35.610Z,1027.71
2017-01-26T03:26:44.564Z,1027.7
2017-01-26T03:27:53.521Z,1027.73
2017-01-26T03:29:02.472Z,1027.82
2017-01-26T03:30:11.426Z,1027.8
2017-01-26T03:31:20.380Z,1027.8
2017-01-26T03:32:29.365Z,1027.78
2017-01-26T03:33:38.314Z,1027.81
2017-01-26T03:34:47.273Z,1027.83
2017-01-26T03:35:56.226Z,1027.81
2017-01-26T03:37:05.193Z,1027.8
2017-01-26T03:38:14.152Z,1027.82
2017-01-26T03:39:23.108Z,1027.82
2017-01-26T03:40:32.091Z,1027.8
2017-01-26T03:41:41.042Z,1027.82
2017-01-26T03:42:49.994Z,1027.83
2017-01-26T03:43:58.947Z,1027.79
2017-01-26T03:45:07.903Z,1027.79
2017-01-26T03:46:16.855Z,1027.74
2017-01-26T03:47:25.812Z,1027.78
2017-01-26T03:48:34.762Z,1027.77
2017-01-26T03:49:43.740Z,1027.74
2017-01-26T03:50:52.693Z,1027.76
2017-01-26T03:52:01.645Z,1027.74
2017-01-26T03:53:10.598Z,1027.76
2017-01-26T03:54:19.553Z,1027.72
2017-01-26T03:55:28.507Z,1027.74
2017-01-26T03:56:37.460Z,1027.69
2017-01-26T03:57:46.416Z,1027.7
2017-01-26T03:58:55.368Z,1027.67
2017-01-26T04:00:04.327Z,1027.67
2017-01-26T04:01:13.280Z,1027.65
2017-01-26T04:02:22.239Z,1027.65
2017-01-26T04:03:31.191Z,1027.65
2017-01-26T04:04:40.144Z,1027.66
2017-01-26T04:05:49.098Z,1027.63
2017-01-26T04:06:58.049Z,1027.62
2017-01-26T04:08:07.000Z,1027.61
2017-01-26T04:09:15.957Z,1027.59
2017-01-26T04:10:24.919Z,1027.59
2017-01-26T04:11:33.874Z,1027.63
2017-01-26T04:12:42.832Z,1027.55
2017-01-26T04:13:51.783Z,1027.55
2017-01-26T04:15:00.757Z,1027.55
2017-01-26T04:16:09.710Z,1027.53
2017-01-26T04:17:18.665Z,1027.51
2017-01-26T04:18:27.615Z,1027.52
2017-01-26T04:19:36.569Z,1027.52
2017-01-26T04:20:45.527Z,1027.53
2017-01-26T04:21:54.478Z,1027.56
2017-01-26T04:23:03.432Z,1027.56
2017-01-26T04:24:12.442Z,1027.54
2017-01-26T04:25:21.391Z,1027.51
2017-01-26T04:26:30.345Z,1027.45
2017-01-26T04:27:39.305Z,1027.46
2017-01-26T04:28:48.258Z,1027.42
2017-01-26T04:29:57.209Z,1027.46
2017-01-26T04:31:06.162Z,1027.42
2017-01-26T04:32:15.114Z,1027.46
2017-01-26T04:33:24.099Z,1027.44
2017-01-26T04:34:33.061Z,1027.44
2017-01-26T04:35:42.015Z,1027.41
2017-01-26T04:36:50.967Z,1027.45
2017-01-26T04:37:59.925Z,1027.42
2017-01-26T04:39:08.883Z,1027.42
2017-01-26T04:40:17.837Z,1027.41
2017-01-26T04:41:26.795Z,1027.37
2017-01-26T04:42:35.749Z,1027.33
2017-01-26T04:43:44.698Z,1027.35
2017-01-26T04:44:53.647Z,1027.33
2017-01-26T04:46:02.692Z,1027.37
2017-01-26T04:47:11.648Z,1027.37
2017-01-26T04:48:20.596Z,1027.36
2017-01-26T04:49:29.549Z,1027.37
2017-01-26T04:50:38.499Z,1027.39
2017-01-26T04:51:47.484Z,1027.32
2017-01-26T04:52:56.436Z,1027.34
2017-01-26T04:54:05.393Z,1027.36
2017-01-26T04:55:14.347Z,1027.31
2017-01-26T04:56:23.304Z,1027.32
2017-01-26T04:57:32.249Z,1027.24
2017-01-26T04:58:41.204Z,1027.29
2017-01-26T04:59:50.154Z,1027.32
2017-01-26T05:00:59.110Z,1027.29
2017-01-26T05:02:08.066Z,1027.32
2017-01-26T05:03:17.021Z,1027.33
2017-01-26T05:04:25.979Z,1027.31
2017-01-26T05:05:34.934Z,1027.29
2017-01-26T05:06:43.878Z,1027.3
2017-01-26T05:07:52.837Z,1027.27
2017-01-26T05:09:01.798Z,1027.24
2017-01-26T05:10:10.750Z,1027.24
2017-01-26T05:11:19.701Z,1027.17
2017-01-26T05:12:28.649Z,1027.16
2017-01-26T05:13:37.600Z,1027.2
2017-01-26T05:14:46.594Z,1027.19
2017-01-26T05:15:55.553Z,1027.18
2017-01-26T05:17:04.509Z,1027.19
2017-01-26T05:18:13.458Z,1027.19
2017-01-26T05:19:22.409Z,1027.18
2017-01-26T05:20:31.366Z,1027.19
2017-01-26T05:21:40.318Z,1027.23
2017-01-26T05:22:49.267Z,1027.21
2017-01-26T05:23:58.220Z,1027.23
2017-01-26T05:25:07.170Z,1027.22
2017-01-26T05:26:16.119Z,1027.25
2017-01-26T05:27:25.086Z,1027.21
2017-01-26T05:28:34.066Z,1027.2
2017-01-26T05:29:43.022Z,1027.24
2017-01-26T05:30:51.968Z,1027.21
2017-01-26T05:32:00.927Z,1027.23
2017-01-26T05:33:09.881Z,1027.21
2017-01-26T05:34:18.834Z,1027.24
2017-01-26T05:35:27.790Z,1027.24
2017-01-26T05:36:36.741Z,1027.2
2017-01-26T05:37:45.692Z,1027.17
2017-01-26T05:38:54.649Z,1027.18
2017-01-26T05:40:03.604Z,1027.2
2017-01-26T05:41:12.559Z,1027.19
2017-01-26T05:42:21.529Z,1027.23
2017-01-26T05:43:30.485Z,1027.22
2017-01-26T05:44:39.440Z,1027.2
2017-01-26T05:45:48.396Z,1027.17
2017-01-26T05:46:57.357Z,1027.18
2017-01-26T05:48:06.397Z,1027.22
2017-01-26T05:49:15.351Z,1027.19
2017-01-26T05:50:24.331Z,1027.2
2017-01-26T05:51:33.286Z,1027.2
2017-01-26T05:52:42.244Z,1027.21
2017-01-26T05:53:51.199Z,1027.2
2017-01-26T05:55:00.148Z,1027.19
2017-01-26T05:56:09.101Z,1027.2
2017-01-26T05:57:18.055Z,1027.22
2017-01-26T05:58:27.008Z,1027.21
2017-01-26T05:59:35.965Z,1027.17
2017-01-26T06:00:45.007Z,1027.2
2017-01-26T06:01:53.958Z,1027.18
2017-01-26T06:03:02.909Z,1027.19
2017-01-26T06:04:11.861Z,1027.23
2017-01-26T06:05:20.814Z,1027.24
2017-01-26T06:06:29.768Z,1027.24
2017-01-26T06:07:38.717Z,1027.21
2017-01-26T06:08:47.707Z,1027.24
2017-01-26T06:09:56.658Z,1027.22
2017-01-26T06:11:05.608Z,1027.24
2017-01-26T06:12:14.562Z,1027.22
2017-01-26T06:13:23.512Z,1027.27
2017-01-26T06:14:32.466Z,1027.26
2017-01-26T06:15:41.417Z,1027.23
2017-01-26T06:16:50.368Z,1027.29
2017-01-26T06:17:59.325Z,1027.24
2017-01-26T06:19:08.278Z,1027.28
2017-01-26T06:20:17.231Z,1027.29
2017-01-26T06:21:26.187Z,1027.28
2017-01-26T06:22:35.140Z,1027.27
2017-01-26T06:23:44.122Z,1027.29
2017-01-26T06:24:53.103Z,1027.28
2017-01-26T06:26:02.059Z,1027.27
2017-01-26T06:27:11.017Z,1027.24
2017-01-26T06:28:19.968Z,1027.16
2017-01-26T06:29:28.924Z,1027.21
2017-01-26T06:30:37.880Z,1027.24
2017-01-26T06:31:46.830Z,1027.23
2017-01-26T06:32:55.779Z,1027.22
2017-01-26T06:34:04.729Z,1027.21
2017-01-26T06:35:13.680Z,1027.2
2017-01-26T06:36:22.680Z,1027.2
2017-01-26T06:37:31.639Z,1027.19
2017-01-26T06:38:40.598Z,1027.17
2017-01-26T06:39:49.557Z,1027.16
2017-01-26T06:40:58.519Z,1027.22
2017-01-26T06:42:07.478Z,1027.21
2017-01-26T06:43:16.437Z,1027.22
2017-01-26T06:44:25.389Z,1027.2
2017-01-26T06:45:34.344Z,1027.19
2017-01-26T06:46:43.300Z,1027.14
2017-01-26T06:47:52.256Z,1027.14
2017-01-26T06:49:01.210Z,1027.13
2017-01-26T06:50:10.163Z,1027.17
2017-01-26T06:51:19.116Z,1027.17
2017-01-26T06:52:28.071Z,1027.21
2017-01-26T06:53:37.114Z,1027.21
2017-01-26T06:54:46.066Z,1027.23
2017-01-26T06:55:55.055Z,1027.23
2017-01-26T06:57:04.009Z,1027.23
2017-01-26T06:58:12.964Z,1027.22
2017-01-26T06:59:22.003Z,1027.25
2017-01-26T07:00:30.954Z,1027.28
2017-01-26T07:01:39.904Z,1027.27
2017-01-26T07:02:48.858Z,1027.25
2017-01-26T07:03:57.815Z,1027.35
2017-01-26T07:05:06.775Z,1027.3
2017-01-26T07:06:15.726Z,1027.38
2017-01-26T07:07:24.678Z,1027.32
2017-01-26T07:08:33.633Z,1027.33
2017-01-26T07:09:42.589Z,1027.4
2017-01-26T07:10:51.546Z,1027.31
2017-01-26T07:12:00.499Z,1027.35
2017-01-26T07:13:09.469Z,1027.33
2017-01-26T07:14:18.832Z,1027.32
2017-01-26T07:15:27.811Z,1027.36
2017-01-26T07:16:36.808Z,1027.38
2017-01-26T07:17:45.759Z,1027.34
2017-01-26T07:18:54.730Z,1027.36
2017-01-26T07:20:03.790Z,1027.33
2017-01-26T07:21:12.750Z,1027.38
2017-01-26T07:22:21.702Z,1027.35
2017-01-26T07:23:30.656Z,1027.36
2017-01-26T07:24:39.605Z,1027.34
2017-01-26T07:25:48.557Z,1027.36
2017-01-26T07:26:57.507Z,1027.36
2017-01-26T07:28:06.458Z,1027.37
2017-01-26T07:29:15.412Z,1027.32
2017-01-26T07:30:24.365Z,1027.4
2017-01-26T07:31:33.319Z,1027.35
2017-01-26T07:32:42.272Z,1027.41
2017-01-26T07:33:51.262Z,1027.42
2017-01-26T07:35:00.221Z,1027.35
2017-01-26T07:36:09.186Z,1027.39
2017-01-26T07:37:18.136Z,1027.38
2017-01-26T07:38:27.090Z,1027.41
2017-01-26T07:39:36.047Z,1027.42
2017-01-26T07:40:45.013Z,1027.44
2017-01-26T07:41:53.963Z,1027.38
2017-01-26T07:43:03.330Z,1027.42
2017-01-26T07:44:12.312Z,1027.44
2017-01-26T07:45:21.270Z,1027.46
2017-01-26T07:46:30.224Z,1027.48
2017-01-26T07:47:39.178Z,1027.54
2017-01-26T07:48:48.220Z,1027.58
2017-01-26T07:49:57.267Z,1027.57
2017-01-26T07:51:06.223Z,1027.57
2017-01-26T07:52:15.194Z,1027.56
2017-01-26T07:53:24.146Z,1027.57
2017-01-26T07:54:33.100Z,1027.57
2017-01-26T07:55:42.052Z,1027.58
2017-01-26T07:56:51.068Z,1027.58
2017-01-26T07:58:00.038Z,1027.54
2017-01-26T07:59:08.989Z,1027.58
2017-01-26T08:00:17.940Z,1027.56
2017-01-26T08:01:26.894Z,1027.59
2017-01-26T08:02:35.850Z,1027.58
2017-01-26T08:03:44.823Z,1027.58
2017-01-26T08:04:53.778Z,1027.63
2017-01-26T08:06:02.733Z,1027.66
2017-01-26T08:07:11.704Z,1027.62
2017-01-26T08:08:20.659Z,1027.66
2017-01-26T08:09:29.611Z,1027.67
2017-01-26T08:10:38.559Z,1027.64
2017-01-26T08:11:47.511Z,1027.61
2017-01-26T08:12:56.466Z,1027.65
2017-01-26T08:14:05.421Z,1027.61
2017-01-26T08:15:14.392Z,1027.63
2017-01-26T08:16:23.354Z,1027.61
2017-01-26T08:17:32.312Z,1027.6
2017-01-26T08:18:41.265Z,1027.55
2017-01-26T08:19:58.886Z,1027.56
2017-01-26T08:21:07.914Z,1027.57
2017-01-26T08:22:16.868Z,1027.52
2017-01-26T08:23:25.825Z,1027.51
2017-01-26T08:24:34.780Z,1027.53
2017-01-26T08:25:43.854Z,1027.52
2017-01-26T08:26:52.887Z,1027.53
2017-01-26T08:28:01.843Z,1027.52
2017-01-26T08:29:10.801Z,1027.5
2017-01-26T08:30:19.756Z,1027.5
2017-01-26T08:31:28.797Z,1027.56
2017-01-26T08:32:37.755Z,1027.52
2017-01-26T08:33:46.944Z,1027.56
2017-01-26T08:34:55.896Z,1027.58
2017-01-26T08:36:04.862Z,1027.53
2017-01-26T08:37:13.817Z,1027.53
2017-01-26T08:38:22.794Z,1027.52
2017-01-26T08:39:31.752Z,1027.51
2017-01-26T08:40:40.705Z,1027.53
2017-01-26T08:41:49.659Z,1027.5
2017-01-26T08:42:58.615Z,1027.55
2017-01-26T08:44:07.564Z,1027.52
2017-01-26T08:45:16.609Z,1027.5
2017-01-26T08:46:25.571Z,1027.51
2017-01-26T08:47:34.524Z,1027.52
2017-01-26T08:48:43.833Z,1027.48
2017-01-26T08:49:56.187Z,1027.52
2017-01-26T08:51:06.422Z,1027.55
2017-01-26T08:52:15.821Z,1027.53
2017-01-26T08:53:26.246Z,1027.52
2017-01-26T08:54:35.346Z,1027.52
2017-01-26T08:55:44.312Z,1027.54
2017-01-26T08:56:54.430Z,1027.53
2017-01-26T08:58:04.067Z,1027.52
2017-01-26T08:59:13.630Z,1027.55
2017-01-26T09:00:22.755Z,1027.53
2017-01-26T09:01:32.329Z,1027.58
2017-01-26T09:02:41.928Z,1027.53
2017-01-26T09:03:52.140Z,1027.57
2017-01-26T09:05:04.668Z,1027.53
2017-01-26T09:06:14.425Z,1027.52
2017-01-26T09:07:24.860Z,1027.55
2017-01-26T09:08:34.750Z,1027.53
2017-01-26T09:09:44.412Z,1027.52
2017-01-26T09:10:53.363Z,1027.53
2017-01-26T09:12:03.022Z,1027.53
2017-01-26T09:13:13.759Z,1027.52
2017-01-26T09:14:24.174Z,1027.52
2017-01-26T09:15:34.061Z,1027.58
2017-01-26T09:16:44.730Z,1027.58
2017-01-26T09:17:54.895Z,1027.59
2017-01-26T09:19:04.907Z,1027.58
2017-01-26T09:20:15.642Z,1027.6
2017-01-26T09:21:26.063Z,1027.56
2017-01-26T09:22:36.392Z,1027.56
2017-01-26T09:23:46.736Z,1027.59
2017-01-26T09:24:55.889Z,1027.55
2017-01-26T09:26:04.871Z,1027.57
2017-01-26T09:27:13.846Z,1027.56
2017-01-26T09:28:22.827Z,1027.51
2017-01-26T09:29:31.804Z,1027.49
2017-01-26T09:30:40.785Z,1027.59
2017-01-26T09:31:49.763Z,1027.56
2017-01-26T09:32:58.739Z,1027.53
2017-01-26T09:34:07.718Z,1027.54
2017-01-26T09:35:16.703Z,1027.52
2017-01-26T09:36:25.681Z,1027.48
2017-01-26T09:37:34.686Z,1027.54
2017-01-26T09:38:43.691Z,1027.49
2017-01-26T09:39:52.741Z,1027.49
2017-01-26T09:41:01.695Z,1027.51
2017-01-26T09:42:10.733Z,1027.52
2017-01-26T09:43:19.695Z,1027.54
2017-01-26T09:44:28.661Z,1027.52
2017-01-26T09:45:37.627Z,1027.55
2017-01-26T09:46:46.590Z,1027.51
2017-01-26T09:47:55.593Z,1027.52
2017-01-26T09:49:04.548Z,1027.45
2017-01-26T09:50:13.511Z,1027.51
2017-01-26T09:51:22.463Z,1027.52
2017-01-26T09:52:31.415Z,1027.44
2017-01-26T09:53:40.455Z,1027.48
2017-01-26T09:54:49.513Z,1027.44
2017-01-26T09:55:58.469Z,1027.46
2017-01-26T09:57:07.516Z,1027.47
2017-01-26T09:58:16.470Z,1027.5
2017-01-26T09:59:25.432Z,1027.47
2017-01-26T10:00:34.399Z,1027.43
2017-01-26T10:01:43.437Z,1027.49
2017-01-26T10:02:52.395Z,1027.5
2017-01-26T10:04:01.352Z,1027.49
2017-01-26T10:05:10.305Z,1027.49
2017-01-26T10:06:19.263Z,1027.47
2017-01-26T10:07:28.217Z,1027.49
2017-01-26T10:08:37.175Z,1027.47
2017-01-26T10:09:46.135Z,1027.41
2017-01-26T10:10:55.091Z,1027.43
2017-01-26T10:12:04.052Z,1027.43
2017-01-26T10:13:13.009Z,1027.42
2017-01-26T10:14:21.980Z,1027.45
2017-01-26T10:15:30.933Z,1027.41
2017-01-26T10:16:39.888Z,1027.41
2017-01-26T10:17:48.840Z,1027.39
2017-01-26T10:18:57.791Z,1027.41
2017-01-26T10:20:06.746Z,1027.42
2017-01-26T10:21:15.699Z,1027.42
2017-01-26T10:22:24.661Z,1027.42
2017-01-26T10:23:33.612Z,1027.42
2017-01-26T10:24:42.572Z,1027.43
2017-01-26T10:25:51.558Z,1027.41
2017-01-26T10:27:00.513Z,1027.32
2017-01-26T10:28:09.467Z,1027.34
2017-01-26T10:29:18.426Z,1027.31
2017-01-26T10:30:27.386Z,1027.3
2017-01-26T10:31:36.509Z,1027.3
2017-01-26T10:32:46.268Z,1027.29
2017-01-26T10:33:55.415Z,1027.31
2017-01-26T10:35:05.816Z,1027.29
2017-01-26T10:36:17.528Z,1027.28
2017-01-26T10:37:27.244Z,1027.25
2017-01-26T10:38:36.209Z,1027.3
2017-01-26T10:39:45.162Z,1027.26
2017-01-26T10:40:54.121Z,1027.26
2017-01-26T10:42:03.077Z,1027.25
2017-01-26T10:43:12.030Z,1027.26
2017-01-26T10:44:21.001Z,1027.19
2017-01-26T10:45:30.044Z,1027.21
2017-01-26T10:46:39.003Z,1027.16
2017-01-26T10:47:47.964Z,1027.13
2017-01-26T10:48:56.935Z,1027.1
2017-01-26T10:50:05.888Z,1027.14
2017-01-26T10:51:14.847Z,1027.14
2017-01-26T10:52:23.802Z,1027.09
2017-01-26T10:53:32.751Z,1027.12
2017-01-26T10:54:41.707Z,1027.12
2017-01-26T10:55:50.664Z,1027.11
2017-01-26T10:56:59.624Z,1027.1
2017-01-26T10:58:08.667Z,1027.11
2017-01-26T10:59:17.628Z,1027.08
2017-01-26T11:00:26.579Z,1027.07
2017-01-26T11:01:35.533Z,1027.09
2017-01-26T11:02:44.487Z,1027.03
2017-01-26T11:03:53.453Z,1027.01
2017-01-26T11:05:02.409Z,1027.05
2017-01-26T11:06:11.366Z,1027.11
2017-01-26T11:07:20.325Z,1027.01
2017-01-26T11:08:29.297Z,1027.04
2017-01-26T11:09:38.941Z,1027.02
2017-01-26T11:10:48.597Z,1027.01
2017-01-26T11:11:58.057Z,1026.99
2017-01-26T11:13:07.874Z,1027.02
2017-01-26T11:14:17.489Z,1026.96
2017-01-26T11:15:27.298Z,1026.97
2017-01-26T11:16:36.979Z,1026.91
2017-01-26T11:17:46.730Z,1027
2017-01-26T11:18:57.112Z,1027.03
2017-01-26T11:20:07.165Z,1026.96
2017-01-26T11:21:16.916Z,1026.94
2017-01-26T11:22:26.858Z,1026.91
2017-01-26T11:23:36.413Z,1026.97
2017-01-26T11:24:46.692Z,1026.96
2017-01-26T11:25:56.614Z,1026.98
2017-01-26T11:27:06.249Z,1026.91
2017-01-26T11:28:15.838Z,1026.92
2017-01-26T11:29:24.795Z,1026.9
2017-01-26T11:30:33.839Z,1026.85
2017-01-26T11:31:42.793Z,1026.86
2017-01-26T11:32:51.746Z,1026.89
2017-01-26T11:34:00.702Z,1026.83
2017-01-26T11:35:09.662Z,1026.83
2017-01-26T11:36:18.625Z,1026.81
2017-01-26T11:37:27.582Z,1026.78
2017-01-26T11:38:36.540Z,1026.74
2017-01-26T11:39:48.592Z,1026.83
2017-01-26T11:40:57.557Z,1026.75
2017-01-26T11:42:06.513Z,1026.7
2017-01-26T11:43:15.468Z,1026.7
2017-01-26T11:44:24.430Z,1026.71
2017-01-26T11:45:33.382Z,1026.69
2017-01-26T11:46:42.340Z,1026.65
2017-01-26T11:47:51.299Z,1026.67
2017-01-26T11:49:00.343Z,1026.67
2017-01-26T11:50:09.303Z,1026.67
2017-01-26T11:51:18.257Z,1026.59
2017-01-26T11:52:27.210Z,1026.66
2017-01-26T11:53:36.173Z,1026.64
2017-01-26T11:54:45.131Z,1026.63
2017-01-26T11:55:54.092Z,1026.6
2017-01-26T11:57:03.051Z,1026.6
2017-01-26T11:58:12.010Z,1026.62
2017-01-26T11:59:21.694Z,1026.67
2017-01-26T12:00:31.557Z,1026.6
2017-01-26T12:01:41.220Z,1026.51
2017-01-26T12:02:50.670Z,1026.53
2017-01-26T12:03:59.894Z,1026.53
2017-01-26T12:05:09.277Z,1026.52
2017-01-26T12:06:18.988Z,1026.49
2017-01-26T12:07:28.769Z,1026.53
2017-01-26T12:08:38.297Z,1026.46
2017-01-26T12:09:47.951Z,1026.47
2017-01-26T12:10:57.674Z,1026.48
2017-01-26T12:12:07.063Z,1026.42
2017-01-26T12:13:17.004Z,1026.42
2017-01-26T12:14:27.113Z,1026.43
2017-01-26T12:15:37.270Z,1026.44
2017-01-26T12:16:47.449Z,1026.37
2017-01-26T12:17:56.609Z,1026.41
2017-01-26T12:19:06.539Z,1026.33
2017-01-26T12:20:16.514Z,1026.35
2017-01-26T12:21:25.770Z,1026.34
2017-01-26T12:22:34.747Z,1026.35
2017-01-26T12:23:44.263Z,1026.33
2017-01-26T12:24:53.274Z,1026.32
2017-01-26T12:26:02.321Z,1026.28
2017-01-26T12:27:12.206Z,1026.33
2017-01-26T12:28:27.259Z,1026.28
2017-01-26T12:29:48.752Z,1026.25
2017-01-26T12:31:08.171Z,1026.18
2017-01-26T12:32:17.126Z,1026.22
2017-01-26T12:33:26.185Z,1026.18
2017-01-26T12:34:35.137Z,1026.18
2017-01-26T12:35:44.089Z,1026.1
2017-01-26T12:36:53.044Z,1026.09
2017-01-26T12:38:02.010Z,1026.15
2017-01-26T12:39:10.977Z,1026.08
2017-01-26T12:40:19.934Z,1026.03
2017-01-26T12:41:28.898Z,1026.01
2017-01-26T12:42:37.912Z,1026
2017-01-26T12:43:46.870Z,1025.99
2017-01-26T12:44:55.826Z,1025.97
2017-01-26T12:46:04.782Z,1025.95
2017-01-26T12:47:13.747Z,1025.9
2017-01-26T12:48:22.705Z,1025.89
2017-01-26T12:49:31.666Z,1025.89
2017-01-26T12:50:40.637Z,1025.9
2017-01-26T12:51:49.597Z,1025.88
2017-01-26T12:52:58.647Z,1025.82
2017-01-26T12:54:07.605Z,1025.82
2017-01-26T12:55:16.622Z,1025.77
2017-01-26T12:56:25.585Z,1025.78
2017-01-26T12:57:34.544Z,1025.78
2017-01-26T12:58:43.505Z,1025.74
2017-01-26T12:59:52.469Z,1025.72
2017-01-26T13:01:01.454Z,1025.75
2017-01-26T13:02:10.426Z,1025.75
2017-01-26T13:03:19.386Z,1025.73
2017-01-26T13:04:28.346Z,1025.7
2017-01-26T13:05:37.298Z,1025.67
2017-01-26T13:06:46.260Z,1025.66
2017-01-26T13:07:55.225Z,1025.65
2017-01-26T13:09:04.176Z,1025.62
2017-01-26T13:10:13.131Z,1025.66
2017-01-26T13:11:22.101Z,1025.65
2017-01-26T13:12:31.056Z,1025.66
2017-01-26T13:13:40.017Z,1025.68
2017-01-26T13:14:48.978Z,1025.62
2017-01-26T13:15:57.930Z,1025.58
2017-01-26T13:17:06.889Z,1025.62
2017-01-26T13:18:15.929Z,1025.62
2017-01-26T13:19:24.909Z,1025.56
2017-01-26T13:20:33.900Z,1025.55
2017-01-26T13:21:42.862Z,1025.56
2017-01-26T13:22:51.816Z,1025.58
2017-01-26T13:24:00.771Z,1025.57
2017-01-26T13:25:09.733Z,1025.56
2017-01-26T13:26:18.689Z,1025.59
2017-01-26T13:27:27.646Z,1025.56
2017-01-26T13:28:36.594Z,1025.51
2017-01-26T13:29:45.547Z,1025.51
2017-01-26T13:30:54.500Z,1025.45
2017-01-26T13:32:03.491Z,1025.42
2017-01-26T13:33:12.444Z,1025.48
2017-01-26T13:34:21.411Z,1025.46
2017-01-26T13:35:30.371Z,1025.45
2017-01-26T13:36:39.327Z,1025.43
2017-01-26T13:37:48.365Z,1025.41
2017-01-26T13:38:57.409Z,1025.38
2017-01-26T13:40:06.372Z,1025.37
2017-01-26T13:41:15.734Z,1025.36
2017-01-26T13:42:24.797Z,1025.36
2017-01-26T13:43:35.297Z,1025.38
2017-01-26T13:44:44.251Z,1025.42
2017-01-26T13:45:53.206Z,1025.38
2017-01-26T13:47:02.172Z,1025.42
2017-01-26T13:48:12.311Z,1025.28
2017-01-26T13:49:21.354Z,1025.34
2017-01-26T13:50:30.439Z,1025.31
2017-01-26T13:51:39.397Z,1025.32
2017-01-26T13:52:48.809Z,1025.35
2017-01-26T13:53:58.577Z,1025.37
2017-01-26T13:55:07.535Z,1025.36
2017-01-26T13:56:16.558Z,1025.3
2017-01-26T13:57:26.586Z,1025.33
2017-01-26T13:58:36.808Z,1025.33
2017-01-26T13:59:45.765Z,1025.25